Fort Resolution, Canada
Current Conditions -  °F | °C
As of 9:00 PM on Wednesday 22 Oct 2014 (Local Time) from CYHY Reporting Station
Light Rain Light Rain  
Wind Chill: 30°   Ceiling: 400
Heat Index: 37°   Visibility: 6mi
Dew Point: 37°   Wind: 12mph
Humidity: 100%   Direction: 90°E
Pressure: 29.53"   Gusts: NA
Location:  61.17°N, 113.68°W
Report Text: CYHY 230300Z 09010KT 6SM -RA BR OVC004 03/03 A2953 RMK ST8 SLP011
Loading
Personal Weather Stations






























Interactive Weather Map
Tropical Storm Tracking
New forecast layout! Learn more

10-Day Weather Forecast

Advertisements
Track Severe Weather on mobile